Hopedale, Louisiana
Current Conditions -  °F | °C
As of 3:55 PM on Saturday 25 Oct 2014 (Local Time) from KNBG Reporting Station
Clear Clear  
Wind Chill: 79°   Ceiling: Unl
Heat Index: 79°   Visibility: 10mi
Dew Point: 50°   Wind: 3mph
Humidity: 36%   Direction: NA
Pressure: 30.07"   Gusts: NA
Location:  29.8369°N, 89.7702°W
Report Text: KNBG 252055Z VRB03KT 10SM CLR 26/10 A3007 RMK AO2 SLP181 T02610100 56019 $
Loading
Personal Weather Stations






























Interactive Weather Map
Tropical Storm Tracking
New forecast layout! Learn more

10-Day Weather Forecast

Advertisements
Track Severe Weather on mobile